createdAt,value
2017-04-06T19:03:56.327Z,65.61
2017-04-06T19:04:56.292Z,65.7
2017-04-06T19:05:56.266Z,65.7
2017-04-06T19:06:56.230Z,65.61
2017-04-06T19:07:56.201Z,66.18
2017-04-06T19:08:56.180Z,65.8
2017-04-06T19:09:56.151Z,65.99
2017-04-06T19:10:56.127Z,65.8
2017-04-06T19:11:56.112Z,65.61
2017-04-06T19:12:56.077Z,66.46
2017-04-06T19:13:56.056Z,66.37
2017-04-06T19:14:56.026Z,66.27
2017-04-06T19:15:56.009Z,66.37
2017-04-06T19:16:56.776Z,66.27
2017-04-06T19:17:56.557Z,66.08
2017-04-06T19:18:55.931Z,66.18
2017-04-06T19:19:55.957Z,66.27
2017-04-06T19:20:55.896Z,66.08
2017-04-06T19:21:55.865Z,66.08
2017-04-06T19:22:55.844Z,66.27
2017-04-06T19:23:55.816Z,66.56
2017-04-06T19:24:55.802Z,66.66
2017-04-06T19:25:55.779Z,66.75
2017-04-06T19:26:55.745Z,66.85
2017-04-06T19:27:55.476Z,67.32
2017-04-06T19:28:55.710Z,66.85
2017-04-06T19:29:55.688Z,66.85
2017-04-06T19:30:55.669Z,66.75
2017-04-06T19:31:55.634Z,67.03
2017-04-06T19:32:55.617Z,67.03
2017-04-06T19:33:55.589Z,67.22
2017-04-06T19:34:55.582Z,67.22
2017-04-06T19:35:55.600Z,66.94
2017-04-06T19:36:55.545Z,67.51
2017-04-06T19:37:55.203Z,67.51
2017-04-06T19:38:55.480Z,67.89
2017-04-06T19:39:55.456Z,67.03
2017-04-06T19:40:55.448Z,67.03
2017-04-06T19:41:55.115Z,67.03
2017-04-06T19:42:55.397Z,67.8
2017-04-06T19:43:55.371Z,67.51
2017-04-06T19:44:55.340Z,67.51
2017-04-06T19:45:55.328Z,67.22
2017-04-06T19:46:55.307Z,67.51
2017-04-06T19:47:55.280Z,67.22
2017-04-06T19:48:54.952Z,68.37
2017-04-06T19:49:55.236Z,67.99
2017-04-06T19:50:55.218Z,67.61
2017-04-06T19:51:55.189Z,68.18
2017-04-06T19:52:55.168Z,67.89
2017-04-06T19:53:55.144Z,67.99
2017-04-06T19:54:55.121Z,67.99
2017-04-06T19:55:55.102Z,68.08
2017-04-06T19:56:55.125Z,68.08
2017-04-06T19:57:55.063Z,67.89
2017-04-06T19:58:55.079Z,67.89
2017-04-06T19:59:55.012Z,67.99
2017-04-06T20:00:54.981Z,67.7
2017-04-06T20:01:54.962Z,68.08
2017-04-06T20:02:54.938Z,68.18
2017-04-06T20:03:54.969Z,68.08
2017-04-06T20:04:54.899Z,67.99
2017-04-06T20:05:54.871Z,67.99
2017-04-06T20:06:54.853Z,67.8
2017-04-06T20:07:54.880Z,67.99
2017-04-06T20:08:54.815Z,68.18
2017-04-06T20:09:54.785Z,68.08
2017-04-06T20:10:54.812Z,68.18
2017-04-06T20:11:54.445Z,67.89
2017-04-06T20:12:54.418Z,67.7
2017-04-06T20:13:54.695Z,67.7
2017-04-06T20:14:54.673Z,67.8
2017-04-06T20:15:54.347Z,67.89
2017-04-06T20:16:54.634Z,68.46
2017-04-06T20:17:54.606Z,68.33
2017-04-06T20:18:54.586Z,68.37
2017-04-06T20:19:54.557Z,68.84
2017-04-06T20:20:54.545Z,68.37
2017-04-06T20:21:54.517Z,68.33
2017-04-06T20:22:54.499Z,68.37
2017-04-06T20:23:54.475Z,68.37
2017-04-06T20:24:54.151Z,68.81
2017-04-06T20:25:54.424Z,69
2017-04-06T20:26:54.101Z,69.04
2017-04-06T20:27:55.582Z,68.62
2017-04-06T20:28:54.414Z,68.71
2017-04-06T20:29:54.390Z,68.94
2017-04-06T20:30:54.317Z,68.71
2017-04-06T20:31:54.283Z,69.13
2017-04-06T20:32:54.267Z,68.9
2017-04-06T20:33:54.248Z,69
2017-04-06T20:34:54.222Z,68.52
2017-04-06T20:35:54.200Z,69
2017-04-06T20:36:53.878Z,68.81
2017-04-06T20:37:54.155Z,68.62
2017-04-06T20:38:54.141Z,68.81
2017-04-06T20:39:54.115Z,68.62
2017-04-06T20:40:54.103Z,68.71
2017-04-06T20:41:54.066Z,68.52
2017-04-06T20:42:53.744Z,68.62
2017-04-06T20:43:54.025Z,68.81
2017-04-06T20:44:54.011Z,68.62
2017-04-06T20:45:54.037Z,68.71
2017-04-06T20:46:53.955Z,68.71
2017-04-06T20:47:53.933Z,68.71
2017-04-06T20:48:53.913Z,68.62
2017-04-06T20:49:53.891Z,68.52
2017-04-06T20:50:53.864Z,68.71
2017-04-06T20:51:53.850Z,68.71
2017-04-06T20:52:53.819Z,69.57
2017-04-06T20:53:53.801Z,69.38
2017-04-06T20:54:53.777Z,69.57
2017-04-06T20:55:53.753Z,69.38
2017-04-06T20:56:53.735Z,69.67
2017-04-06T20:57:53.709Z,69.67
2017-04-06T20:58:53.687Z,69.57
2017-04-06T20:59:53.658Z,69.57
2017-04-06T21:00:53.646Z,69.76
2017-04-06T21:01:53.616Z,69.38
2017-04-06T21:02:53.603Z,69.67
2017-04-06T21:03:53.572Z,69.48
2017-04-06T21:04:53.555Z,69.95
2017-04-06T21:05:53.525Z,69.67
2017-04-06T21:06:53.216Z,69.57
2017-04-06T21:07:53.480Z,69.57
2017-04-06T21:08:53.462Z,69.95
2017-04-06T21:09:53.692Z,69.57
2017-04-06T21:10:53.416Z,69.67
2017-04-06T21:11:53.092Z,69.85
2017-04-06T21:12:53.365Z,70.33
2017-04-06T21:13:53.351Z,69.95
2017-04-06T21:14:53.326Z,69.95
2017-04-06T21:15:53.302Z,70.43
2017-04-06T21:16:53.283Z,69.95
2017-04-06T21:17:53.257Z,70.24
2017-04-06T21:18:52.926Z,70.33
2017-04-06T21:19:53.212Z,70.33
2017-04-06T21:20:53.187Z,70.33
2017-04-06T21:21:53.176Z,70.24
2017-04-06T21:22:53.145Z,70.24
2017-04-06T21:23:52.817Z,70.05
2017-04-06T21:24:53.099Z,70.43
2017-04-06T21:25:52.767Z,70.9
2017-04-06T21:26:52.746Z,70.52
2017-04-06T21:27:53.027Z,70.81
2017-04-06T21:28:53.050Z,70.62
2017-04-06T21:29:52.678Z,70.81
2017-04-06T21:30:52.967Z,71.28
2017-04-06T21:31:52.988Z,71.19
2017-04-06T21:32:52.971Z,71.47
2017-04-06T21:33:52.889Z,71.19
2017-04-06T21:34:52.866Z,71.57
2017-04-06T21:35:52.849Z,71.44
2017-04-06T21:36:52.821Z,71.44
2017-04-06T21:37:54.202Z,71.82
2017-04-06T21:38:52.775Z,71.72
2017-04-06T21:39:52.756Z,71.44
2017-04-06T21:40:52.731Z,71.44
2017-04-06T21:41:52.708Z,71.44
2017-04-06T21:42:52.696Z,71.34
2017-04-06T21:43:52.665Z,71.25
2017-04-06T21:44:52.693Z,71.53
2017-04-06T21:45:52.644Z,71.34
2017-04-06T21:46:52.595Z,71.82
2017-04-06T21:47:52.573Z,72.11
2017-04-06T21:48:52.545Z,72.2
2017-04-06T21:49:52.529Z,72.49
2017-04-06T21:50:52.509Z,72.58
2017-04-06T21:51:52.478Z,72.58
2017-04-06T21:52:52.455Z,72.3
2017-04-06T21:53:52.430Z,72.49
2017-04-06T21:54:52.413Z,72.86
2017-04-06T21:55:52.388Z,72.77
2017-04-06T21:56:52.365Z,73.15
2017-04-06T21:57:52.396Z,73.44
2017-04-06T21:58:52.317Z,72.92
2017-04-06T21:59:51.993Z,72.96
2017-04-06T22:00:52.271Z,73.59
2017-04-06T22:01:52.251Z,73.49
2017-04-06T22:02:52.224Z,73.49
2017-04-06T22:03:51.906Z,73.88
2017-04-06T22:04:52.178Z,74.16
2017-04-06T22:05:52.153Z,74.26
2017-04-06T22:06:52.130Z,74.07
2017-04-06T22:07:52.112Z,74.63
2017-04-06T22:08:52.139Z,74.54
2017-04-06T22:09:52.085Z,74.54
2017-04-06T22:10:53.501Z,74.44
2017-04-06T22:11:52.015Z,74.73
2017-04-06T22:12:52.194Z,74.82
2017-04-06T22:13:52.017Z,74.54
2017-04-06T22:14:51.947Z,74.63
2017-04-06T22:15:51.919Z,74.63
2017-04-06T22:16:51.905Z,74.54
2017-04-06T22:17:51.883Z,74.82
2017-04-06T22:18:51.859Z,74.73
2017-04-06T22:19:51.839Z,75.11
2017-04-06T22:20:51.808Z,74.54
2017-04-06T22:21:52.048Z,74.63
2017-04-06T22:22:51.762Z,75.02
2017-04-06T22:23:51.738Z,74.73
2017-04-06T22:24:51.721Z,74.82
2017-04-06T22:25:51.690Z,74.73
2017-04-06T22:26:51.669Z,74.82
2017-04-06T22:27:51.641Z,74.92
2017-04-06T22:28:51.622Z,74.63
2017-04-06T22:29:51.597Z,75.02
2017-04-06T22:30:51.578Z,75.11
2017-04-06T22:31:51.264Z,75.21
2017-04-06T22:32:51.528Z,74.98
2017-04-06T22:33:51.506Z,74.92
2017-04-06T22:34:51.479Z,74.92
2017-04-06T22:35:51.462Z,75.11
2017-04-06T22:36:51.435Z,75.64
2017-04-06T22:37:51.413Z,75.55
2017-04-06T22:38:51.434Z,75.59
2017-04-06T22:39:51.369Z,75.45
2017-04-06T22:40:51.070Z,75.36
2017-04-06T22:41:51.324Z,75.4
2017-04-06T22:42:51.293Z,75.36
2017-04-06T22:43:51.260Z,75.45
2017-04-06T22:44:51.249Z,75.64
2017-04-06T22:45:51.225Z,75.17
2017-04-06T22:46:51.203Z,75.36
2017-04-06T22:47:51.182Z,75.55
2017-04-06T22:48:51.408Z,75.84
2017-04-06T22:49:51.131Z,76.03
2017-04-06T22:50:51.107Z,75.45
2017-04-06T22:51:51.090Z,75.55
2017-04-06T22:52:51.063Z,76.12
2017-04-06T22:53:51.036Z,76.03
2017-04-06T22:54:51.013Z,76.03
2017-04-06T22:55:50.994Z,75.93
2017-04-06T22:56:50.962Z,75.64
2017-04-06T22:57:50.945Z,75.74
2017-04-06T22:58:50.924Z,75.84
2017-04-06T22:59:50.903Z,76.31
2017-04-06T23:00:50.869Z,76.31
2017-04-06T23:01:50.843Z,76.5
2017-04-06T23:02:50.821Z,76.4
2017-04-06T23:03:50.802Z,76.5
2017-04-06T23:04:50.775Z,76.21
2017-04-06T23:05:50.753Z,76.4
2017-04-06T23:06:50.737Z,76.21
2017-04-06T23:07:50.704Z,76.88
2017-04-06T23:08:50.692Z,76.88
2017-04-06T23:09:50.657Z,76.78
2017-04-06T23:10:50.636Z,76.88
2017-04-06T23:11:50.605Z,76.69
2017-04-06T23:12:50.593Z,76.78
2017-04-06T23:13:50.316Z,76.78
2017-04-06T23:14:50.541Z,76.59
2017-04-06T23:15:50.513Z,76.78
2017-04-06T23:16:50.522Z,77.07
2017-04-06T23:17:50.469Z,77.07
2017-04-06T23:18:50.450Z,77.17
2017-04-06T23:19:50.422Z,77.07
2017-04-06T23:20:50.400Z,77.17
2017-04-06T23:21:50.373Z,76.88
2017-04-06T23:22:50.355Z,76.88
2017-04-06T23:23:50.329Z,76.97
2017-04-06T23:24:50.300Z,77.31
2017-04-06T23:25:50.279Z,76.97
2017-04-06T23:26:50.256Z,77.36
2017-04-06T23:27:50.229Z,77.51
2017-04-06T23:28:50.204Z,77.36
2017-04-06T23:29:50.189Z,77.12
2017-04-06T23:30:50.709Z,77.55
2017-04-06T23:31:50.135Z,77.83
2017-04-06T23:32:50.166Z,77.6
2017-04-06T23:33:50.091Z,77.92
2017-04-06T23:34:50.062Z,77.89
2017-04-06T23:35:50.039Z,77.51
2017-04-06T23:36:50.018Z,77.7
2017-04-06T23:37:49.995Z,77.6
2017-04-06T23:38:49.971Z,77.6
2017-04-06T23:39:49.946Z,78.55
2017-04-06T23:40:49.974Z,78.17
2017-04-06T23:41:49.892Z,78.74
2017-04-06T23:42:49.869Z,78.74
2017-04-06T23:43:49.850Z,78.69
2017-04-06T23:44:49.828Z,78.3
2017-04-06T23:45:49.810Z,78.4
2017-04-06T23:46:49.780Z,77.64
2017-04-06T23:47:49.452Z,77.73
2017-04-06T23:48:49.743Z,77.73
2017-04-06T23:49:49.766Z,77.64
2017-04-06T23:50:49.683Z,77.26
2017-04-06T23:51:49.680Z,77.39
2017-04-06T23:52:49.638Z,77.11
2017-04-06T23:53:49.617Z,77.11
2017-04-06T23:54:49.284Z,76.54
2017-04-06T23:55:49.569Z,76.06
2017-04-06T23:56:49.538Z,76.54
2017-04-06T23:57:49.522Z,76.16
2017-04-06T23:58:49.497Z,75.87
2017-04-06T23:59:49.221Z,76.06
